TimeCST,TemperatureF,Dew PointF,Humidity,Sea Level PressureIn,VisibilityMPH,Wind Direction,Wind SpeedMPH,Gust SpeedMPH,PrecipitationIn,Events,Conditions,WindDirDegrees,DateUTC
12:50 AM,55.4,55.4,100,30.17,3.0,ESE,11.5,-,N/A,,Overcast,110,1999-01-07 06:50:00
1:50 AM,55.4,55.4,100,30.17,4.0,ESE,8.1,-,N/A,,Overcast,110,1999-01-07 07:50:00
2:50 AM,55.4,55.4,100,30.16,4.0,SE,6.9,-,N/A,Rain,Light Rain,130,1999-01-07 08:50:00
3:50 AM,55.4,55.4,100,30.15,0.2,ESE,5.8,-,N/A,Fog,Fog,110,1999-01-07 09:50:00
4:50 AM,55.4,55.4,100,30.15,0.5,ESE,5.8,-,N/A,Fog,Fog,110,1999-01-07 10:50:00
5:50 AM,55.4,55.4,100,30.15,3.0,ESE,8.1,-,N/A,,Overcast,120,1999-01-07 11:50:00
6:50 AM,57.2,55.4,94,30.16,4.0,ESE,9.2,-,N/A,Rain,Light Rain,120,1999-01-07 12:50:00
7:50 AM,57.2,57.2,100,30.17,2.5,SE,9.2,-,N/A,,Overcast,130,1999-01-07 13:50:00
8:50 AM,59.0,57.2,94,30.16,2.5,SE,11.5,-,N/A,Rain,Light Rain,130,1999-01-07 14:50:00
9:50 AM,59.0,57.2,94,30.17,6.0,SE,11.5,-,N/A,,Overcast,140,1999-01-07 15:50:00
10:50 AM,62.6,60.8,94,30.17,7.0,SE,13.8,-,N/A,,Overcast,140,1999-01-07 16:50:00
11:50 AM,60.8,59.0,94,30.14,3.0,SE,13.8,-,N/A,,Overcast,130,1999-01-07 17:50:00
12:55 PM,60.8,60.8,100,30.09,5.0,SE,11.5,-,N/A,,Overcast,140,1999-01-07 18:55:00
1:50 PM,60.8,59.0,94,30.07,3.0,ESE,10.4,-,N/A,,Overcast,120,1999-01-07 19:50:00
2:50 PM,60.8,59.0,94,30.05,4.0,ESE,12.7,-,N/A,,Overcast,120,1999-01-07 20:50:00
3:50 PM,60.8,60.8,100,30.04,4.0,ESE,11.5,-,N/A,,Overcast,120,1999-01-07 21:50:00
4:50 PM,60.8,60.8,100,30.05,0.8,WNW,11.5,-,N/A,Rain,Rain,300,1999-01-07 22:50:00
5:50 PM,60.8,59.0,94,30.04,3.0,ESE,10.4,-,N/A,Rain,Rain,120,1999-01-07 23:50:00
8:50 PM,60.8,60.8,100,30.04,7.0,SSE,9.2,-,N/A,,Overcast,150,1999-01-08 02:50:00
9:50 PM,60.8,59.0,94,30.03,7.0,SE,11.5,-,N/A,,Overcast,140,1999-01-08 03:50:00
10:50 PM,60.8,59.0,94,30.02,7.0,SSE,13.8,-,N/A,,Overcast,150,1999-01-08 04:50:00
11:50 PM,60.8,57.2,88,30.01,5.0,SSE,9.2,-,N/A,Rain,Light Rain,150,1999-01-08 05:50:00